Terminal Aerodrome Forecast
Issued by NWS

Home | Current Version | Previous Version | Text Only | Print | Product List | Glossary On
Versions: 1 2 3 4 5 6 7 8 9 10 11 12 13 14 15 16 17 18 19 20 21 22 23 24
000
FTUS46 KSEW 270500
TAFCLM
TAF
KCLM 270520Z 2706/2806 VRB04KT P6SM -RA OVC004
      TEMPO 2708/2712 4SM -RA BR
     FM271500 VRB03KT P6SM BKN015 OVC025
     FM272000 08008KT P6SM SCT025 BKN050=

USA.gov is the U.S. government's official web portal to all federal, state and local government web resources and services.